Mount Hood Parkdale, OR (97041)

3:39 PM PST on January 25, 2015 (GMT -0800)
Parkdale West | Change Station
CLOSE
Current Station
Personal Weather Station
Location: Mt Hood Parkdale, OR
Elevation: 1473 ft
Nearby Weather Stations

Elev 1473 ft 45.54 °N, 121.62 °W | Updated 9 seconds ago

Partly Cloudy
Partly Cloudy
60.1 °F
Feels Like 60.1 °F
N
0.0
Wind Variable Wind from NNW
Gusts 0.0 mph

Today
High -- | Low -- °F
--% Chance of Precip.
Yesterday
High -- | Low -- °F
Precip. -- in
7:35 AM 5:02 PM
Waxing Crescent, 37% visible
Pressure 30.13 in
Visibility 10.0 miles
Clouds Overcast 400 ft
Dew Point 48 °F
Humidity 64%
Rainfall 0.00 in
Snow Depth Not available.
UV 0 out of 12
Pollen 2.70 out of 12
Air Quality Not available.
Flu Activity Not available.
SPECI KDLS 252328Z AUTO 00000KT 10SM OVC004 09/07 A3013 RMK AO2 T00890072

More Conditions Fewer Conditions

Pressure 30.13 in
Visibility 10.0 miles
Clouds Overcast 400 ft
Dew Point 48 °F
Humidity 64%
Rainfall 0.00 in
Snow Depth Not available.
UV 0 out of 12
Pollen 2.70 out of 12
Air Quality Not available.
Flu Activity Not available.
SPECI KDLS 252328Z AUTO 00000KT 10SM OVC004 09/07 A3013 RMK AO2 T00890072

More Conditions Fewer Conditions

10-Day Weather Forecast

Almanac

Astronomy

Jan. 25, 2015 Rise Set
Actual Time
Civil Twilight
Nautical Twilight
Astronomical Twilight
Moon
Length of Visible Light
Length of Day
Tomorrow will be .
, % of the Moon is Illuminated

Today's Extremes

State Highs State Lows

Community

WunderPhotos

Upload Photos

1,790,090 photos uploaded!

WunderBlogs® & News

Nearby

Air Quality

  Air Quality AQ Index Pollutant
Not available.

Snow Depth

Station Depth Elevation

Earthquake Activity

City Distance Mag. Time & Date
Minimum magnitude displayed is 2.5.

Coastal Water Temperatures

Place Temperature

Nearby Weather Stations